Weather observations for the past three days for
Beatrice Municipal
Metric (Imperial)
Date Time (cdt) Wind (kph) Vis. (km) Weather Sky Cond. Temperature (ºC) Relative Humidity Wind Chill (°C) Heat Index (°C) Pressure Precipitation (cm)
Air Dwpt 6 hour altimeter (cm) sea level (mb) 1 hr 3 hr 6 hr
Max. Min.
02 20:15 SW 13 16.09 Fair CLR 17.5 -1.1 28% 76.2 0.0
02 19:55 SW 19 16.09 Fair CLR 18.5 -1.5 26% 76.2 0.0
02 19:35 SW 17 16.09 Fair CLR 19.6 -3.1 21% 76.2 0.0
02 19:15 SW 17 16.09 Fair CLR 20.2 -3.9 19% 76.2 0.0
02 18:55 W 15 16.09 Fair CLR 20.6 -4.1 21.1 16 19% 76.23 0.0
02 18:35 SW 17 16.09 Fair CLR 20.8 -4.3 18% 76.23 0.0
02 18:15 SW 15 16.09 Fair CLR 20.9 -4.1 18% 76.25 0.0
02 17:55 SW 15 16.09 Fair CLR 21 -3.9 18% 76.25 0.0
02 17:35 SW 13 G 28 16.09 Fair CLR 20.7 -4.1 19% 76.28 0.0
02 17:15 SW 11 G 31 16.09 Fair CLR 20.7 -4.6 18% 76.28 0.0
02 16:55 SW 15 16.09 Fair CLR 20.3 -3.8 19% 76.3 0.0
02 16:35 W 15 16.09 Fair CLR 20.1 -2.7 21% 76.33 0.0
02 16:15 Calm 16.09 Fair CLR 19.6 -4 20% 76.35 0.0
02 15:55 W 17 16.09 Fair CLR 19.7 -2.4 22% 76.38 0.0
02 15:35 W 9 16.09 Fair CLR 19.1 -1.7 25% 76.4 0.0
02 15:15 N 7 G 15 16.09 Fair CLR 18.6 -2.5 24% 76.45 0.0
02 14:35 SW 15 16.09 Fair CLR 18 -1.8 26% 76.48 0.0
02 14:15 W 15 16.09 Fair CLR 17.7 -1.8 27% 76.5 0.0
02 13:55 W 6 16.09 Fair CLR 17.1 -2.3 27% 76.53 0.0
02 13:35 W 9 16.09 Fair CLR 17.1 -0.9 30% 76.56 0.0
02 13:15 SW 11 16.09 Fair CLR 16.4 -1.9 29% 76.58 0.0
02 12:55 SW 7 16.09 Fair CLR 16.1 -2.3 16.2 0.2 28% 76.58 0.0
02 12:35 NW 11 16.09 Fair CLR 16.1 -2 29% 76.61 0.0
02 12:15 NW 6 16.09 Fair CLR 15.2 -2 31% 76.63 0.0
02 11:55 W 9 16.09 Fair CLR 14.9 -2.1 31% 76.63 0.0
02 11:35 W 9 16.09 Fair CLR 14.5 -2.4 31% 76.66 0.0
02 11:15 NW 7 16.09 Fair CLR 14.7 -1.5 33% 76.66 0.0
02 10:55 W 13 16.09 Fair CLR 13.9 -1 36% 76.68 0.0
02 10:35 NW 7 16.09 Fair CLR 12.9 -1.6 37% 76.68 0.0
02 10:15 W 9 16.09 Fair CLR 12.6 -1 39% 76.68 0.0
02 09:55 W 11 16.09 Fair CLR 11.4 -0.3 45% 76.68 0.0
02 09:35 W 11 16.09 Fair CLR 10.4 0 49% 76.71 0.0
02 09:15 W 7 16.09 Fair CLR 9 0.6 56% 8 76.71 0.0
02 08:55 NW 7 16.09 Fair CLR 7.8 0.9 62% 7 76.68 0.0
02 08:35 Calm 16.09 Fair CLR 6.5 0.7 67% 76.68 0.0
02 08:15 Calm 16.09 Fair CLR 5.1 0.4 72% 76.68 0.0
02 07:55 Calm 16.09 Fair CLR 3.7 0.1 78% 76.68 0.0
02 07:35 Calm 16.09 Fair CLR 2.1 -0.1 86% 76.66 0.0
02 07:15 Calm 16.09 Fair CLR 1 -0.9 87% 76.66 0.0
02 06:55 Calm 16.09 Fair CLR 0.2 -1.2 4.1 0 90% 76.63 0.0
02 06:35 Calm 16.09 Fair CLR 0.2 -1.2 90% 76.63 0.0
02 06:15 Calm 16.09 Fair CLR 0.3 -1.3 89% 76.63 0.0
02 05:55 Calm 16.09 Fair CLR 0.4 -1.4 88% 76.63 0.0
02 05:35 Calm 16.09 Fair CLR 0.5 -1.1 89% 76.63 0.0
02 05:15 Calm 16.09 Fair CLR 1 -1.1 86% 76.63 0.0
02 04:55 Calm 16.09 Fair CLR 1.3 -1.2 84% 76.63 0.0
02 04:35 Calm 16.09 Fair CLR 1 -1.1 86% 76.61 0.0
02 04:15 Calm 16.09 Fair CLR 1.5 -1 84% 76.61 0.0
02 03:55 Calm 16.09 Fair CLR 1.7 -0.9 83% 76.61 0.0
02 03:35 Calm 16.09 Fair CLR 1.9 -0.5 84% 76.61 0.0
02 03:15 Calm 16.09 Fair CLR 1.6 -0.8 84% 76.61 0.0
02 02:55 Calm 16.09 Fair CLR 2 -1.5 78% 76.61 0.0
02 02:35 Calm 16.09 Fair CLR 2 -2 75% 76.61 0.0
02 02:15 NW 6 16.09 Fair CLR 1.6 -2 77% 76.61 0.0
02 01:55 Calm 16.09 Fair CLR 2.4 -1.6 75% 76.61 0.0
02 01:35 Calm 16.09 Fair CLR 2.6 -1.3 76% 76.61 0.0
02 01:15 Calm 16.09 Fair CLR 2.4 -1.8 74% 76.61 0.0
02 00:55 Calm 16.09 Fair CLR 4.1 -1.8 15.5 4.1 66% 76.58 0.0
02 00:35 Calm 16.09 Fair CLR 4.6 -1.5 65% 76.58 0.0
02 00:15 Calm 16.09 Fair CLR 4.8 -1.6 64% 76.58 0.0
01 23:55 Calm 16.09 Fair CLR 5.2 -1.8 61% 76.56 0.0
01 23:35 Calm 16.09 Fair CLR 6.1 -2.2 56% 76.56 0.0
01 23:15 NE 6 16.09 Fair CLR 7.3 -3 48% 76.56 0.0
01 22:55 NE 7 16.09 Fair CLR 7.5 -2.7 49% 6 76.53 0.0
01 22:35 NE 7 16.09 Fair CLR 8 -3.1 46% 7 76.53 0.0
01 22:15 NE 7 16.09 Fair CLR 8.4 -3.1 45% 8 76.53 0.0
01 21:55 NE 11 16.09 Fair CLR 8.5 -3.2 44% 7 76.5 0.0
01 21:35 NE 7 16.09 Fair CLR 9.4 -3.3 41% 9 76.5 0.0
01 21:15 NE 9 16.09 Fair CLR 9.9 -3.7 39% 9 76.48 0.0
01 20:35 N 13 16.09 Fair CLR 11.8 -4.5 32% 76.43 0.0
01 20:15 N 13 16.09 Fair CLR 12.7 -4.6 30% 76.43 0.0
01 19:55 N 15 16.09 Fair CLR 13.7 -5.4 26% 76.4 0.0
01 19:35 N 19 16.09 Fair CLR 14.2 -5.5 25% 76.35 0.0
01 19:15 N 20 16.09 Fair CLR 15 -5.4 24% 76.35 0.0
01 18:55 N 30 16.09 Fair CLR 15.6 -5.1 17.3 15.5 24% 76.35 0.0
01 18:35 N 24 G 37 16.09 Fair CLR 16 -4.8 24% 76.35 0.0
01 18:15 N 31 16.09 Partly Cloudy SCT075 16 -2.8 28% 76.35 0.0
01 17:55 N 28 G 35 16.09 Mostly Cloudy BKN075 16.5 -2.5 27% 76.33 0.0
01 17:35 N 28 G 33 16.09 Mostly Cloudy BKN075 16.4 -1.5 30% 76.33 0.0
01 17:15 NW 19 G 33 16.09 Partly Cloudy SCT075 16.9 -1.2 29% 76.33 0.0
01 16:55 N 28 G 35 16.09 Partly Cloudy SCT075 16.6 -0.8 31% 76.33 0.0
01 16:35 NW 22 G 33 16.09 Partly Cloudy SCT075 17 -0.9 30% 76.35 0.0
01 16:15 NW 17 G 39 16.09 Partly Cloudy SCT080 SCT090 17 -1 30% 76.35 0.0
01 15:55 NW 20 G 37 16.09 Partly Cloudy SCT080 SCT090 17.1 -0.5 30% 76.38 0.0
01 15:35 NW 13 G 19 16.09 Partly Cloudy SCT080 SCT090 16.6 -0.7 31% 76.38 0.0
01 15:15 NW 15 G 35 16.09 Partly Cloudy SCT070 17.3 0 31% 76.4 0.0
01 14:55 N 22 G 28 16.09 Partly Cloudy SCT070 17 -0.4 31% 76.43 0.0
01 14:35 N 22 G 54 16.09 Fair CLR 16.3 -0.8 31% 76.43 0.0
01 14:15 N 22 G 31 16.09 Fair CLR 16.4 -0.3 32% 76.43 0.0
01 13:55 N 7 16.09 Fair CLR 16.1 -0.4 33% 76.43 0.0
01 13:35 N 15 G 33 16.09 Fair CLR 15.8 -0.7 33% 76.43 0.0
01 13:15 N 19 G 31 16.09 Fair CLR 15.8 -1 32% 76.45 0.0
01 12:55 NW 15 G 26 16.09 Fair CLR 15.9 -0.8 15.9 1.8 32% 76.45 0.0
01 12:35 NW 19 G 28 16.09 Fair CLR 15.6 -0.6 33% 76.45 0.0
01 12:15 NW 11 G 31 16.09 Fair CLR 15.3 -0.6 34% 76.45 0.0
01 11:55 N 11 G 28 16.09 Fair CLR 14.9 -0.3 36% 76.45 0.0
01 11:35 N 20 G 31 16.09 Fair CLR 14.6 -0.2 37% 76.45 0.0
01 11:15 NW 11 G 30 16.09 Fair CLR 13.8 0.4 40% 76.45 0.0
01 10:55 N 19 16.09 Fair CLR 13.5 0.9 42% 76.48 0.0
01 10:35 NW 11 16.09 Fair CLR 12.8 0.1 42% 76.45 0.0
01 10:15 NW 13 16.09 Fair CLR 12.2 0.2 44% 76.45 0.0
01 09:55 NW 13 16.09 Fair CLR 11.6 2.3 53% 76.45 0.0
01 09:35 NW 19 G 26 16.09 Fair CLR 11.6 1.8 51% 76.45 0.0
01 09:15 W 15 16.09 Fair CLR 10.4 2.7 59% 76.45 0.0
01 08:55 W 17 16.09 Fair CLR 9.4 2.6 63% 7 76.45 0.0
01 08:35 W 13 16.09 Fair CLR 8 2.7 70% 6 76.48 0.0
01 08:15 NW 11 16.09 Fair CLR 6.2 2.2 76% 4 76.5 0.0
01 07:55 NW 13 16.09 Fair CLR 5.1 1.8 79% 3 76.5 0.0
01 07:35 NW 9 16.09 Fair CLR 3.5 1.4 86% 1 76.48 0.0
01 07:15 Calm 16.09 Fair CLR 2.3 1 91% 76.43 0.0
01 06:55 W 9 16.09 Fair CLR 1.6 0.1 5.1 0.5 90% -1 76.43 0.0
01 06:35 W 6 16.09 Fair CLR 0.6 -0.7 91% 76.4 0.0
01 06:15 Calm 16.09 Fair CLR 2.2 0.3 87% 76.4 0.0
01 05:55 Calm 16.09 Fair CLR 2.3 0 85% 76.38 0.0
01 05:35 Calm 16.09 Fair CLR 2.3 0.1 86% 76.4 0.0
01 05:15 Calm 16.09 Fair CLR 2.8 0.4 84% 76.4 0.0
01 04:55 Calm 16.09 Fair CLR 2.5 0.2 85% 76.4 0.0
01 04:35 Calm 16.09 Fair CLR 3.1 0.5 83% 76.4 0.0
01 04:15 Calm 16.09 Fair CLR 2.7 0.7 87% 76.4 0.0
01 03:55 Calm 16.09 Fair CLR 3.7 1.1 83% 76.4 0.0
01 03:35 Calm 16.09 Fair CLR 3.5 1 84% 76.4 0.0
01 03:15 SW 6 16.09 Fair CLR 3.7 1.3 85% 76.45 0.0
01 02:55 Calm 16.09 Fair CLR 3.5 1.5 87% 76.45 0.0
01 02:35 Calm 16.09 Fair CLR 3 1.5 90% 76.48 0.0
01 02:15 Calm 16.09 Fair CLR 3.1 1 86% 76.48 0.0
01 01:55 Calm 16.09 Fair CLR 3.5 1.4 86% 76.48 0.0
01 01:35 Calm 16.09 Fair CLR 4.2 1.8 85% 76.5 0.0
01 01:15 Calm 16.09 Fair CLR 4.4 1.4 81% 76.5 0.0
01 00:55 Calm 16.09 Fair CLR 5 2.2 14.1 4.5 82% 76.5 0.0
01 00:35 Calm 16.09 Fair CLR 5.1 1.3 77% 76.53 0.0
01 00:15 Calm 16.09 Fair CLR 5.5 1.2 74% 76.53 0.0
30 23:55 Calm 16.09 Fair CLR 5 1.2 77% 76.53 0.0
30 23:35 Calm 16.09 Fair CLR 4.5 0.7 77% 76.53 0.0
30 23:15 Calm 16.09 Fair CLR 5.4 1 74% 76.53 0.0
30 22:55 Calm 16.09 Fair CLR 7.7 0.8 62% 76.53 0.0
30 22:35 Calm 16.09 Fair CLR 7.3 1 65% 76.53 0.0
30 22:15 NE 6 16.09 Fair CLR 7 1.4 68% 76.5 0.0
30 21:55 N 7 16.09 Fair CLR 7.2 2.1 70% 6 76.5 0.0
30 21:35 N 7 16.09 Partly Cloudy SCT095 8.2 2.4 67% 7 76.48 0.0
30 20:55 N 9 16.09 Overcast SCT070 OVC095 11.1 1.3 51% 76.45 0.0
30 20:35 N 13 16.09 Overcast SCT070 OVC095 11.5 1.4 50% 76.43 0.0
30 20:15 N 13 16.09 Overcast OVC095 11.8 2 51% 76.43 0.0
30 19:55 N 20 16.09 Overcast OVC095 12.6 1.4 47% 76.4 0.0
30 19:35 N 19 16.09 Overcast SCT060 OVC095 13 1.2 45% 76.4 0.0
30 19:15 N 19 16.09 Overcast BKN060 BKN070 OVC095 13.5 0.9 42% 76.38 0.0
30 18:55 N 22 G 28 16.09 Overcast BKN060 OVC070 14.2 0.6 16.8 13.7 40% 76.38 0.0
30 18:35 N 19 16.09 Overcast OVC070 15 1.3 40% 76.35 0.0
30 18:15 N 26 16.09 Overcast OVC065 14.9 0.9 39% 76.35 0.0
30 17:55 N 15 16.09 Mostly Cloudy SCT065 BKN075 13.9 1 42% 76.35 0.0
30 17:35 N 20 G 26 16.09 Partly Cloudy SCT065 SCT075 SCT090 14.2 0.5 39% 76.35 0.0
30 17:15 NE 19 G 28 16.09 Mostly Cloudy SCT070 BKN075 BKN090 14.5 0.3 38% 76.33 0.0
30 16:55 N 30 16.09 Partly Cloudy SCT070 SCT080 15.6 0.3 36% 76.35 0.0
30 16:35 N 22 16.09 Mostly Cloudy BKN080 14.5 0.4 38% 76.35 0.0
30 16:15 N 22 G 31 16.09 Overcast BKN075 OVC085 14.8 0.4 38% 76.35 0.0
30 15:55 NW 20 G 31 16.09 Mostly Cloudy BKN075 15.6 -0.1 35% 76.35 0.0
30 15:35 NW 17 G 31 16.09 Partly Cloudy SCT065 SCT075 16.7 0 32% 76.38 0.0
30 15:15 N 19 G 33 16.09 Partly Cloudy SCT065 16.2 -0.2 33% 76.38 0.0
30 14:55 N 20 G 35 16.09 Partly Cloudy SCT075 16.3 -0.2 33% 76.4 0.0
30 14:35 N 24 16.09 Partly Cloudy SCT060 16.3 0.5 34% 76.4 0.0
30 14:15 N 30 G 41 16.09 Partly Cloudy SCT060 16 0.6 35% 76.4 0.0
30 13:55 N 22 G 33 16.09 Partly Cloudy SCT050 16.1 0.9 36% 76.4 0.0
30 13:35 N 22 G 37 16.09 Partly Cloudy SCT050 SCT085 15.3 2.2 41% 76.4 0.0
30 13:15 N 26 G 37 16.09 Mostly Cloudy SCT050 BKN085 15.6 3 43% 76.43 0.0
30 12:55 N 22 G 37 16.09 Mostly Cloudy SCT038 BKN050 14.9 4.1 15.3 8.7 49% 76.43 0.0
30 12:35 N 22 G 33 16.09 Mostly Cloudy BKN038 BKN043 BKN049 14.8 5.4 54% 76.45 0.0
30 12:15 N 19 16.09 Mostly Cloudy BKN035 BKN042 BKN090 14.8 5.4 54% 76.45 0.0
30 11:55 N 24 G 37 16.09 Mostly Cloudy SCT032 SCT039 BKN047 14.8 5.9 55% 76.45 0.0
30 11:35 N 24 G 35 16.09 Mostly Cloudy BKN032 BKN038 BKN100 14.5 6.1 57% 76.45 0.0
30 11:15 NW 19 G 28 16.09 Mostly Cloudy SCT032 SCT038 BKN100 14.5 6.6 59% 76.45 0.0
30 10:55 NW 20 G 30 16.09 Partly Cloudy SCT100 14.3 6.5 60% 76.45 0.0
30 10:35 NW 20 16.09 Partly Cloudy SCT100 14.3 6.2 58% 76.45 0.0
30 10:15 NW 20 16.09 Partly Cloudy SCT100 13.9 6 59% 76.43 0.0
30 09:55 NW 20 16.09 Partly Cloudy SCT100 13.5 5.9 60% 76.43 0.0
30 09:35 NW 15 16.09 Partly Cloudy SCT100 13 6 63% 76.43 0.0
30 09:15 N 15 16.09 Fair CLR 13 5.9 62% 76.43 0.0
30 08:55 NW 17 G 26 16.09 Fair CLR 12.6 5.1 61% 76.43 0.0
30 08:35 W 7 16.09 Fair CLR 12.1 5.8 66% 76.4 0.0
30 08:15 W 9 16.09 Fair CLR 11.3 6 70% 76.4 0.0
30 07:55 W 7 16.09 Fair CLR 10.3 6.2 76% 76.4 0.0
30 07:35 NW 9 16.09 Fair CLR 9.9 5.7 75% 9 76.35 0.0
30 07:15 W 9 16.09 Fair CLR 9 5.4 78% 8 76.35 0.0
30 06:55 W 11 16.09 Fair CLR 9 5 11.2 8.8 76% 8 76.33 0.0
30 06:35 W 11 16.09 Partly Cloudy SCT080 9.5 4.7 72% 8 76.33 0.0
30 06:15 W 11 16.09 Mostly Cloudy BKN080 10 4.7 70% 9 76.33 0.0
30 05:55 W 11 16.09 Overcast SCT060 BKN080 OVC100 10 5.2 72% 9 76.35 0.0
30 05:35 W 9 16.09 Overcast BKN060 BKN070 OVC100 10.2 5 70% 76.35 0.0
30 05:15 SW 13 16.09 Mostly Cloudy BKN060 10.2 5.1 71% 76.33 0.0
30 04:55 SW 15 16.09 Overcast OVC060 10.9 5 67% 76.33 0.0
30 04:35 SW 13 16.09 Overcast OVC060 10.6 5 69% 76.33 0.0
30 04:15 SW 15 16.09 Overcast OVC060 10 5 71% 8 76.35 0.0
30 03:55 SW 15 16.09 Partly Cloudy SCT060 10 4.5 69% 8 76.33 0.0
30 03:35 SW 11 16.09 Partly Cloudy SCT070 8.9 4.9 76% 7 76.33 0.0
30 03:15 SW 11 16.09 Mostly Cloudy BKN070 9.6 5 73% 8 76.33 0.0
30 02:55 SW 9 16.09 Partly Cloudy SCT100 9.1 5 76% 8 76.33 0.0
30 02:35 SW 9 16.09 Partly Cloudy SCT100 9.2 4.5 73% 8 76.38 0.0
30 02:15 Calm 16.09 Mostly Cloudy BKN100 9.1 4.8 75% 76.4 0.0
30 01:55 S 7 16.09 Partly Cloudy SCT100 9.2 4.5 73% 8 76.4 0.0
30 01:35 S 9 16.09 Fair CLR 9.5 4.6 72% 8 76.4 0.0
30 01:15 S 9 16.09 Fair CLR 10.5 4.6 67% 76.4 0.0
30 00:55 SW 13 16.09 Partly Cloudy SCT110 11.3 4.4 17.2 11 63% 76.4 0.0
30 00:35 S 17 16.09 Partly Cloudy SCT110 11.8 4.4 61% 76.43 0.0
30 00:15 S 13 16.09 Fair CLR 12 4.5 60% 76.43 0.0
29 23:55 S 13 16.09 Fair CLR 11.5 4.3 62% 76.4 0.0
29 23:35 S 9 16.09 Fair CLR 11.6 4.2 61% 76.43 0.0
29 23:15 S 9 16.09 Fair CLR 11.2 4.6 64% 76.4 0.0
29 22:55 S 7 16.09 Fair CLR 11.9 4 59% 76.4 0.0
29 22:35 S 6 16.09 Fair CLR 11.8 3.8 58% 76.43 0.0
29 22:15 Calm 16.09 Fair CLR 11.6 4.3 61% 76.43 0.0
29 21:55 Calm 16.09 Fair CLR 11.8 3.6 57% 76.43 0.0
29 21:35 Calm 16.09 Fair CLR 12.2 5.3 63% 76.38 0.0
29 21:15 S 6 16.09 Fair CLR 13.1 2.8 50% 76.35 0.0
29 20:55 Calm 16.09 Fair CLR 13.4 4.5 55% 76.35 0.0
29 20:35 S 6 16.09 Fair CLR 14.9 2.7 44% 76.33 0.0
Date Time (cdt) Wind (kph) Vis. (km) Weather Sky Cond. Air Dwpt Max. Min. Relative Humidity Wind Chill (°C) Heat Index (°C) altimeter (cm) sea level (mb) 1 hr 3 hr 6 hr
6 hour
Temperature (ºC) Pressure Precipitation (cm)